Time;durP1;ratioP1;P1;durP2;ratioP2;P2;SDS_P1;SDS_P2;PMS_P1;PMS_P2;Temp;Humidity;BMP_temperature;BMP_pressure;BME280_temperature;BME280_humidity;BME280_pressure;Samples;Min_cycle;Max_cycle;Signal;HPM_P1;HPM_P2
2022/09/09 00:01:40;;;;;;;32.50;12.13;;;;;;;15.57;100.00;100595.44;5009751;28;20029;-74
2022/09/09 00:04:20;;;;;;;33.97;11.45;;;;;;;15.57;100.00;100585.41;5030617;28;20025;-75
2022/09/09 00:07:04;;;;;;;33.88;13.10;;;;;;;15.57;100.00;100590.84;5032437;28;20458;-75
2022/09/09 00:09:56;;;;;;;30.15;12.90;;;;;;;15.54;100.00;100585.03;5035818;28;20083;-74
2022/09/09 00:12:32;;;;;;;36.75;12.98;;;;;;;15.48;100.00;100586.75;4987797;28;20099;-75
2022/09/09 00:15:08;;;;;;;37.03;13.20;;;;;;;15.45;100.00;100587.16;5029105;28;20026;-75
2022/09/09 00:17:42;;;;;;;33.33;14.10;;;;;;;15.42;100.00;100584.91;5032683;28;20392;-76
2022/09/09 00:20:26;;;;;;;43.63;15.57;;;;;;;15.35;100.00;100581.44;5021342;28;20123;-75
2022/09/09 00:22:59;;;;;;;34.50;13.05;;;;;;;15.37;100.00;100585.56;5038029;28;20157;-74
2022/09/09 00:25:33;;;;;;;33.75;15.63;;;;;;;15.38;100.00;100578.28;5012158;28;20117;-75
2022/09/09 00:27:58;;;;;;;39.22;17.00;;;;;;;15.39;100.00;100579.91;5023383;28;20021;-75
2022/09/09 00:30:26;;;;;;;48.55;16.73;;;;;;;15.38;100.00;100578.28;5043792;28;20029;-74
2022/09/09 00:33:04;;;;;;;49.92;16.52;;;;;;;15.39;100.00;100577.22;5038388;28;20033;-75
2022/09/09 00:35:30;;;;;;;;;;;;;;;15.37;100.00;100569.28;5021197;28;20030;-75
2022/09/09 00:38:00;;;;;;;50.50;17.63;;;;;;;15.36;100.00;100569.53;5019693;28;19952;-74
2022/09/09 00:40:37;;;;;;;52.92;21.05;;;;;;;15.33;100.00;100564.53;5019244;28;20080;-73
2022/09/09 00:43:25;;;;;;;68.00;25.98;;;;;;;15.31;100.00;100572.06;5018796;28;20060;-74
2022/09/09 00:46:12;;;;;;;71.28;29.33;;;;;;;15.29;100.00;100572.25;5031677;28;20037;-75
2022/09/09 00:48:40;;;;;;;66.50;28.00;;;;;;;15.31;100.00;100569.34;5025591;28;20478;-75
2022/09/09 00:51:19;;;;;;;;;;;;;;;15.32;100.00;100569.13;5039262;28;20068;-75
2022/09/09 00:54:22;;;;;;;57.25;26.52;;;;;;;15.33;100.00;100572.69;5020711;28;19935;-76
2022/09/09 00:56:57;;;;;;;62.90;25.35;;;;;;;15.36;100.00;100573.06;5005187;28;20095;-76
2022/09/09 00:59:40;;;;;;;58.72;25.40;;;;;;;15.36;100.00;100561.38;5046533;28;20037;-75
2022/09/09 01:02:21;;;;;;;64.32;22.60;;;;;;;15.36;100.00;100570.34;5048598;28;20025;-76
2022/09/09 01:04:47;;;;;;;53.30;21.63;;;;;;;15.35;100.00;100559.75;5041450;28;20030;-76
2022/09/09 01:07:17;;;;;;;52.28;20.35;;;;;;;15.36;100.00;100555.97;5041236;28;20466;-75
2022/09/09 01:09:52;;;;;;;53.60;20.55;;;;;;;15.34;100.00;100544.50;5039299;28;20029;-76
2022/09/09 01:12:25;;;;;;;52.38;18.63;;;;;;;15.32;100.00;100550.16;5023016;28;20040;-75
2022/09/09 01:14:56;;;;;;;53.20;20.02;;;;;;;15.27;100.00;100541.84;5017063;28;20060;-75
2022/09/09 01:17:30;;;;;;;56.65;19.20;;;;;;;15.20;100.00;100546.50;5022749;28;20037;-73
2022/09/09 01:20:02;;;;;;;43.83;18.73;;;;;;;15.18;100.00;100542.34;5038704;28;20093;-74
2022/09/09 01:22:35;;;;;;;40.38;16.58;;;;;;;15.10;100.00;100544.25;5040215;28;20515;-74
2022/09/09 01:25:09;;;;;;;41.70;15.77;;;;;;;15.12;100.00;100544.03;5021284;28;20477;-73
2022/09/09 01:27:35;;;;;;;57.20;16.13;;;;;;;15.05;100.00;100544.06;5031770;28;20034;-74
2022/09/09 01:30:02;;;;;;;46.17;14.23;;;;;;;14.99;100.00;100539.53;5013057;28;20080;-75
2022/09/09 01:32:46;;;;;;;41.88;14.80;;;;;;;14.95;100.00;100532.88;5001820;28;20445;-74
2022/09/09 01:35:30;;;;;;;33.22;12.02;;;;;;;14.91;100.00;100531.69;5027800;28;20519;-75
2022/09/09 01:37:55;;;;;;;35.05;13.02;;;;;;;14.89;100.00;100529.16;5033023;28;20412;-75
2022/09/09 01:40:21;;;;;;;30.17;11.93;;;;;;;14.89;100.00;100533.75;5041008;28;20079;-74
2022/09/09 01:42:46;;;;;;;41.47;11.25;;;;;;;14.87;100.00;100516.88;5049957;28;20055;-75
2022/09/09 01:45:12;;;;;;;41.33;12.15;;;;;;;14.84;100.00;100522.75;5033071;28;20033;-75
2022/09/09 01:47:37;;;;;;;35.78;11.80;;;;;;;14.83;100.00;100523.81;5050380;28;20029;-76
2022/09/09 01:50:03;;;;;;;32.30;11.60;;;;;;;14.79;100.00;100517.16;5033184;28;20033;-77
2022/09/09 01:52:29;;;;;;;36.28;10.98;;;;;;;14.77;100.00;100517.38;5052811;28;20540;-75
2022/09/09 01:54:55;;;;;;;30.75;10.88;;;;;;;14.76;100.00;100518.41;5026905;28;20616;-76
2022/09/09 01:57:42;;;;;;;30.95;10.93;;;;;;;14.78;100.00;100515.50;5029957;28;20055;-76
2022/09/09 02:00:11;;;;;;;39.90;11.40;;;;;;;14.78;100.00;100519.03;5031949;28;20397;-75
2022/09/09 02:02:46;;;;;;;42.33;10.32;;;;;;;14.81;100.00;100515.06;5013713;28;20128;-75
2022/09/09 02:05:18;;;;;;;35.05;9.52;;;;;;;14.83;100.00;100504.84;5048169;28;20053;-76
2022/09/09 02:07:55;;;;;;;34.05;8.32;;;;;;;14.84;100.00;100501.91;5047517;28;20140;-75
2022/09/09 02:10:28;;;;;;;27.13;8.32;;;;;;;14.86;100.00;100505.22;5018664;28;20025;-76
2022/09/09 02:13:04;;;;;;;24.92;6.95;;;;;;;14.89;100.00;100501.25;5020530;28;20026;-74
2022/09/09 02:15:38;;;;;;;23.08;5.25;;;;;;;14.86;100.00;100501.69;5038758;28;20029;-74
2022/09/09 02:18:07;;;;;;;16.45;4.72;;;;;;;14.85;100.00;100500.00;5023125;28;20481;-75
2022/09/09 02:20:34;;;;;;;20.25;4.85;;;;;;;14.90;100.00;100492.06;5041174;28;20026;-75
2022/09/09 02:23:01;;;;;;;21.08;4.50;;;;;;;14.89;100.00;100485.81;5024009;28;20021;-75
2022/09/09 02:25:29;;;;;;;16.53;4.53;;;;;;;14.95;100.00;100481.41;5025949;28;20029;-75
2022/09/09 02:27:54;;;;;;;;;;;;;;;14.94;100.00;100482.47;5039514;28;20045;-74
2022/09/09 02:30:20;;;;;;;28.85;5.82;;;;;;;14.99;100.00;100485.34;5027995;28;19917;-76
2022/09/09 02:32:47;;;;;;;25.42;4.72;;;;;;;14.93;100.00;100481.63;5028587;28;20021;-75
2022/09/09 02:35:16;;;;;;;17.27;4.67;;;;;;;14.97;100.00;100475.78;5014723;28;20041;-75
2022/09/09 02:37:43;;;;;;;15.25;4.93;;;;;;;14.86;100.00;100475.41;5018039;28;20406;-76
2022/09/09 02:40:10;;;;;;;13.73;3.97;;;;;;;14.82;100.00;100486.91;5010934;28;20441;-76
2022/09/09 02:42:43;;;;;;;24.08;4.20;;;;;;;14.81;100.00;100482.56;5032406;28;20025;-75
2022/09/09 02:45:10;;;;;;;14.93;4.20;;;;;;;14.82;100.00;100481.50;5026500;28;20025;-76
2022/09/09 02:47:41;;;;;;;21.58;4.05;;;;;;;14.79;100.00;100484.66;5013189;28;20064;-75
2022/09/09 02:50:16;;;;;;;22.27;4.50;;;;;;;14.81;100.00;100485.25;5014672;28;20393;-75
2022/09/09 02:53:07;;;;;;;18.90;4.75;;;;;;;14.80;100.00;100491.75;5005404;28;20041;-75
2022/09/09 02:55:46;;;;;;;20.08;4.43;;;;;;;14.80;100.00;100486.31;5042946;28;20037;-75
2022/09/09 02:58:16;;;;;;;19.63;4.60;;;;;;;14.80;100.00;100487.16;5042477;28;20038;-75
2022/09/09 03:00:42;;;;;;;17.73;3.88;;;;;;;14.81;100.00;100477.13;5044561;28;20081;-75
2022/09/09 03:03:09;;;;;;;11.63;4.18;;;;;;;14.79;100.00;100479.22;5039905;28;20057;-76
2022/09/09 03:05:35;;;;;;;15.52;3.72;;;;;;;14.81;100.00;100477.13;5039133;28;20033;-75
2022/09/09 03:08:00;;;;;;;18.48;3.88;;;;;;;14.83;100.00;100472.34;5044145;28;20120;-75
2022/09/09 03:10:25;;;;;;;17.55;4.03;;;;;;;14.80;100.00;100459.22;5042191;28;20108;-75
2022/09/09 03:12:51;;;;;;;13.07;3.65;;;;;;;14.83;100.00;100469.63;5036664;28;20226;-75
2022/09/09 03:15:16;;;;;;;20.63;3.55;;;;;;;14.83;100.00;100461.50;5019457;28;20084;-75
2022/09/09 03:17:42;;;;;;;19.83;5.03;;;;;;;14.84;100.00;100463.16;5032056;28;20469;-75
2022/09/09 03:20:08;;;;;;;20.00;4.55;;;;;;;14.84;100.00;100473.97;5033225;28;20033;-74
2022/09/09 03:22:34;;;;;;;19.33;3.60;;;;;;;14.81;100.00;100460.88;5032045;28;20096;-75
2022/09/09 03:25:00;;;;;;;24.33;5.00;;;;;;;14.80;100.00;100457.34;5026164;28;20022;-75
2022/09/09 03:27:25;;;;;;;23.38;4.55;;;;;;;14.80;100.00;100461.94;5027429;28;20036;-74
2022/09/09 03:29:51;;;;;;;15.77;3.65;;;;;;;14.81;100.00;100455.47;5032035;28;20064;-74
2022/09/09 03:32:17;;;;;;;17.48;3.88;;;;;;;14.85;100.00;100452.09;5033034;28;20079;-75
2022/09/09 03:34:43;;;;;;;24.08;4.43;;;;;;;14.81;99.88;100453.56;5026866;28;20028;-74
2022/09/09 03:37:08;;;;;;;16.80;4.18;;;;;;;14.81;99.93;100452.75;5031978;28;20025;-76
2022/09/09 03:39:33;;;;;;;29.25;4.25;;;;;;;14.78;99.89;100454.03;5031907;28;20039;-75
2022/09/09 03:41:58;;;;;;;16.48;4.13;;;;;;;14.80;99.78;100454.63;5034603;28;20025;-74
2022/09/09 03:44:24;;;;;;;17.65;4.13;;;;;;;14.80;99.34;100453.81;5034423;28;20025;-75
2022/09/09 03:46:49;;;;;;;19.00;4.30;;;;;;;14.81;99.51;100455.47;5035288;28;20034;-74
2022/09/09 03:49:15;;;;;;;18.00;3.70;;;;;;;14.79;99.60;100452.13;5034539;28;20083;-76
2022/09/09 03:51:40;;;;;;;15.20;3.38;;;;;;;14.82;99.43;100467.94;5030839;28;20030;-77
2022/09/09 03:54:08;;;;;;;19.20;3.90;;;;;;;14.85;99.23;100451.25;5030688;28;20048;-76
2022/09/09 03:56:34;;;;;;;16.42;3.90;;;;;;;14.83;98.82;100447.94;5035877;28;20026;-75
2022/09/09 03:59:00;;;;;;;15.23;4.18;;;;;;;14.83;98.76;100442.53;5036366;28;20025;-75
2022/09/09 04:01:25;;;;;;;14.82;3.67;;;;;;;14.84;98.75;100441.47;5034719;28;20056;-75
2022/09/09 04:03:51;;;;;;;16.50;3.70;;;;;;;14.86;98.43;100445.63;5031871;28;20493;-75
2022/09/09 04:06:17;;;;;;;23.40;4.10;;;;;;;14.85;98.37;100443.13;5033175;28;20506;-76
2022/09/09 04:08:43;;;;;;;30.15;4.13;;;;;;;14.86;98.64;100442.09;5027221;28;20156;-75
2022/09/09 04:11:09;;;;;;;24.08;4.18;;;;;;;14.86;98.32;100433.97;5030964;28;20087;-75
2022/09/09 04:13:37;;;;;;;21.88;4.05;;;;;;;14.86;98.17;100431.25;5033924;28;20033;-75
2022/09/09 04:16:03;;;;;;;16.45;3.45;;;;;;;14.90;98.14;100433.31;5032474;28;20017;-75
2022/09/09 04:18:29;;;;;;;22.08;4.22;;;;;;;14.93;97.85;100435.56;5032047;28;20041;-75
2022/09/09 04:20:57;;;;;;;19.25;3.47;;;;;;;14.88;97.80;100429.16;5033691;28;20021;-75
2022/09/09 04:23:23;;;;;;;19.10;3.72;;;;;;;14.83;98.19;100431.69;5030629;28;20026;-75
2022/09/09 04:25:53;;;;;;;17.00;3.03;;;;;;;14.80;98.08;100426.72;5014704;28;20469;-75
2022/09/09 04:28:20;;;;;;;18.08;4.53;;;;;;;14.79;98.26;100408.78;5032070;28;20086;-74
2022/09/09 04:30:46;;;;;;;20.40;4.60;;;;;;;14.79;98.40;100406.09;5003871;28;20560;-75
2022/09/09 04:33:12;;;;;;;20.65;3.67;;;;;;;14.81;98.14;100404.00;5017212;28;20033;-75
2022/09/09 04:35:38;;;;;;;20.73;3.78;;;;;;;14.76;98.35;100403.81;5015719;28;20119;-76
2022/09/09 04:38:04;;;;;;;22.13;4.20;;;;;;;14.80;98.14;100407.75;5008073;28;20041;-76
2022/09/09 04:40:30;;;;;;;20.17;4.50;;;;;;;14.76;98.35;100398.41;5022047;28;20030;-76
2022/09/09 04:42:58;;;;;;;23.17;4.38;;;;;;;14.74;98.43;100404.03;5019282;28;20117;-76
2022/09/09 04:45:23;;;;;;;;;;;;;;;14.73;98.53;100406.97;5024490;28;20434;-75
2022/09/09 04:47:48;;;;;;;18.50;4.20;;;;;;;14.71;98.57;100401.75;5033195;28;19923;-76
2022/09/09 04:50:14;;;;;;;23.23;4.78;;;;;;;14.73;98.67;100398.84;5033592;28;20503;-75
2022/09/09 04:52:40;;;;;;;19.92;4.60;;;;;;;14.69;98.71;100403.84;5029109;28;20021;-75
2022/09/09 04:55:07;;;;;;;24.85;4.20;;;;;;;14.71;98.79;100405.28;5034096;28;20036;-75
2022/09/09 04:57:32;;;;;;;20.00;4.38;;;;;;;14.67;98.89;100400.56;5035052;28;20088;-75
2022/09/09 04:59:59;;;;;;;18.55;4.10;;;;;;;14.65;99.00;100403.47;5035738;28;20033;-75
2022/09/09 05:02:25;;;;;;;21.77;4.65;;;;;;;14.65;99.04;100400.75;5035587;28;20029;-75
2022/09/09 05:04:51;;;;;;;23.83;4.80;;;;;;;14.65;99.13;100408.88;5035450;28;20029;-74
2022/09/09 05:07:16;;;;;;;16.80;4.40;;;;;;;14.63;99.20;100399.31;5034964;28;20052;-74
2022/09/09 05:09:42;;;;;;;23.27;4.70;;;;;;;14.60;99.06;100405.19;5035133;28;20131;-75
2022/09/09 05:12:08;;;;;;;29.30;4.90;;;;;;;14.60;99.34;100403.31;5033982;28;20029;-75
2022/09/09 05:14:33;;;;;;;11.70;4.40;;;;;;;14.56;99.44;100402.09;5032899;28;20021;-75
2022/09/09 05:16:59;;;;;;;19.20;5.18;;;;;;;14.52;99.29;100398.13;5031828;28;20155;-74
2022/09/09 05:19:24;;;;;;;32.03;5.63;;;;;;;14.52;99.64;100403.53;5040213;28;20088;-75
2022/09/09 05:21:49;;;;;;;21.98;7.88;;;;;;;14.54;99.97;100393.34;5029514;28;20064;-75
2022/09/09 05:24:15;;;;;;;28.25;6.13;;;;;;;14.57;99.92;100389.38;5028633;28;20049;-75
2022/09/09 05:26:41;;;;;;;22.55;5.45;;;;;;;14.56;99.84;100385.00;5024839;28;20037;-74
2022/09/09 05:29:08;;;;;;;17.80;5.68;;;;;;;14.58;99.84;100391.84;5013917;28;20033;-75
2022/09/09 05:31:33;;;;;;;20.67;6.18;;;;;;;14.65;99.96;100392.63;5033007;28;20034;-75
2022/09/09 05:33:59;;;;;;;28.75;5.38;;;;;;;14.69;99.47;100388.47;5015046;28;21450;-75
2022/09/09 05:36:24;;;;;;;24.23;6.75;;;;;;;14.71;99.29;100389.03;5032663;28;20674;-75
2022/09/09 05:38:50;;;;;;;21.58;6.40;;;;;;;14.74;99.01;100393.19;5019653;28;20622;-75
2022/09/09 05:41:17;;;;;;;31.70;7.28;;;;;;;14.78;99.12;100396.31;5018939;28;20032;-75
2022/09/09 05:43:46;;;;;;;23.58;5.88;;;;;;;14.92;99.17;100403.25;5031450;28;20037;-75
2022/09/09 05:46:15;;;;;;;35.80;6.30;;;;;;;15.20;98.00;100407.41;5027387;28;20044;-75
2022/09/09 05:48:50;;;;;;;21.88;6.00;;;;;;;15.46;95.23;100412.56;5013950;28;20026;-75
2022/09/09 05:51:18;;;;;;;23.77;5.75;;;;;;;15.54;93.40;100409.56;5031503;28;20034;-75
2022/09/09 05:53:44;;;;;;;;;;;;;;;15.57;93.70;100421.84;5030779;28;20030;-73
2022/09/09 05:56:21;;;;;;;27.13;5.45;;;;;;;15.65;92.87;100418.81;5032211;28;19916;-76
2022/09/09 05:58:47;;;;;;;25.20;6.75;;;;;;;15.51;93.04;100418.16;5033824;28;20067;-77
2022/09/09 06:01:17;;;;;;;24.83;5.80;;;;;;;15.36;94.12;100417.69;5017788;28;20053;-75
2022/09/09 06:03:44;;;;;;;22.17;5.90;;;;;;;15.27;94.58;100406.28;5011714;28;20495;-75
2022/09/09 06:06:12;;;;;;;20.77;5.55;;;;;;;15.24;94.80;100422.97;5030302;28;20108;-76
2022/09/09 06:08:39;;;;;;;32.75;6.05;;;;;;;15.19;95.31;100416.56;5036270;28;20057;-76
2022/09/09 06:11:10;;;;;;;28.23;5.80;;;;;;;15.13;96.15;100412.88;5017829;28;20031;-77
2022/09/09 06:13:38;;;;;;;27.45;6.57;;;;;;;15.13;96.14;100421.84;4996114;28;20402;-76
2022/09/09 06:16:04;;;;;;;28.95;6.55;;;;;;;15.13;95.98;100415.59;5034540;28;20021;-76
2022/09/09 06:18:29;;;;;;;30.35;6.55;;;;;;;15.11;96.15;100415.81;5032709;28;20515;-76
2022/09/09 06:21:00;;;;;;;32.88;7.63;;;;;;;15.17;95.87;100421.41;5033324;28;20018;-76
2022/09/09 06:23:26;;;;;;;37.53;6.97;;;;;;;15.22;95.61;100413.41;5032667;28;20107;-76
2022/09/09 06:26:01;;;;;;;29.55;6.78;;;;;;;15.20;95.75;100415.53;5033684;28;20109;-78
2022/09/09 06:28:27;;;;;;;35.17;7.43;;;;;;;15.25;95.90;100413.00;5014297;28;20108;-75
2022/09/09 06:30:59;;;;;;;25.63;6.93;;;;;;;15.33;95.55;100418.13;5033326;28;20438;-75
2022/09/09 06:33:25;;;;;;;29.83;7.75;;;;;;;15.39;95.14;100411.78;5035347;28;20109;-76
2022/09/09 06:35:53;;;;;;;27.95;7.68;;;;;;;15.42;94.63;100419.47;5017276;28;20026;-76
2022/09/09 06:38:18;;;;;;;29.65;8.65;;;;;;;15.32;94.60;100419.16;5033935;28;20048;-76
2022/09/09 06:40:51;;;;;;;31.15;8.10;;;;;;;15.27;95.40;100411.72;5026979;28;20030;-76
2022/09/09 06:43:16;;;;;;;22.67;7.60;;;;;;;15.29;95.29;100412.31;5023435;28;20430;-76
2022/09/09 06:45:42;;;;;;;26.08;7.60;;;;;;;15.24;95.40;100422.16;5022899;28;20087;-76
2022/09/09 06:48:08;;;;;;;26.63;8.07;;;;;;;15.22;95.23;100413.41;5042075;28;20034;-75
2022/09/09 06:50:34;;;;;;;36.88;8.95;;;;;;;15.21;95.73;100419.91;5044432;28;20030;-74
2022/09/09 06:53:00;;;;;;;45.13;9.57;;;;;;;15.20;95.75;100415.53;5017083;28;20052;-75
2022/09/09 06:55:25;;;;;;;34.15;8.70;;;;;;;15.29;95.33;100419.59;5008110;28;20392;-75
2022/09/09 06:57:50;;;;;;;34.53;9.40;;;;;;;15.35;95.53;100413.31;5024636;28;20436;-75
2022/09/09 07:00:16;;;;;;;36.28;9.23;;;;;;;15.39;95.35;100416.41;5024643;28;20029;-75
2022/09/09 07:02:42;;;;;;;32.78;9.20;;;;;;;15.37;94.82;100406.59;5019075;28;20029;-76
2022/09/09 07:05:08;;;;;;;36.45;8.70;;;;;;;15.45;94.51;100413.59;5025839;28;20033;-74
2022/09/09 07:07:33;;;;;;;41.75;9.23;;;;;;;15.39;94.18;100411.78;5010104;28;20041;-75
2022/09/09 07:09:59;;;;;;;30.60;8.98;;;;;;;15.41;94.66;100412.41;5033660;28;20109;-76
2022/09/09 07:12:24;;;;;;;40.33;8.48;;;;;;;15.43;94.71;100412.16;5014253;28;20080;-75
2022/09/09 07:14:49;;;;;;;34.60;8.10;;;;;;;15.44;94.52;100411.94;5011313;28;20034;-75
2022/09/09 07:17:15;;;;;;;36.72;8.50;;;;;;;15.40;94.40;100416.16;5031393;28;20033;-74
2022/09/09 07:19:40;;;;;;;30.38;8.93;;;;;;;15.41;94.26;100412.41;5032259;28;20554;-75
2022/09/09 07:22:06;;;;;;;37.55;9.10;;;;;;;15.38;94.40;100412.88;5032734;28;20025;-75
2022/09/09 07:24:31;;;;;;;37.50;8.25;;;;;;;15.34;94.69;100406.22;5030600;28;20554;-75
2022/09/09 07:26:57;;;;;;;35.95;9.02;;;;;;;15.34;94.88;100409.75;5021666;28;21115;-75
2022/09/09 07:29:22;;;;;;;50.95;9.02;;;;;;;15.39;94.53;100417.22;5012409;28;20034;-75
2022/09/09 07:31:48;;;;;;;46.72;8.98;;;;;;;15.40;94.71;100410.72;4985301;28;20728;-76
2022/09/09 07:34:13;;;;;;;33.20;9.05;;;;;;;15.41;94.64;100408.88;5001141;28;20399;-74
2022/09/09 07:36:40;;;;;;;41.63;9.60;;;;;;;15.43;94.67;100410.31;5014654;28;20044;-74
2022/09/09 07:39:08;;;;;;;31.25;9.18;;;;;;;15.40;94.52;100408.03;5017000;28;20042;-74
2022/09/09 07:41:37;;;;;;;;;;;;;;;15.43;94.43;100420.31;4999589;28;20080;-75
2022/09/09 07:44:08;;;;;;;40.83;9.38;;;;;;;15.49;94.38;100420.25;5001352;28;19925;-74
2022/09/09 07:46:34;;;;;;;28.98;9.43;;;;;;;15.47;94.04;100411.50;5018271;28;20030;-73
2022/09/09 07:49:00;;;;;;;30.67;9.70;;;;;;;15.46;93.96;100415.28;5002872;28;20469;-74
2022/09/09 07:51:29;;;;;;;30.92;9.50;;;;;;;15.48;93.66;100404.19;5017845;28;20037;-75
2022/09/09 07:53:59;;;;;;;31.13;9.43;;;;;;;15.47;93.86;100411.50;5024777;28;20109;-75
2022/09/09 07:56:26;;;;;;;43.63;9.75;;;;;;;15.52;93.56;100411.66;5020293;28;20030;-76
2022/09/09 07:58:53;;;;;;;38.55;9.38;;;;;;;15.57;93.15;100416.41;5015947;28;20087;-76
2022/09/09 08:01:24;;;;;;;39.35;8.90;;;;;;;15.62;93.38;100418.47;5000951;28;20402;-76
2022/09/09 08:03:59;;;;;;;35.50;9.55;;;;;;;15.71;93.11;100422.53;5006963;28;20025;-75
2022/09/09 08:06:26;;;;;;;40.72;8.77;;;;;;;15.73;92.68;100415.03;5020886;28;20069;-76
2022/09/09 08:08:52;;;;;;;38.55;7.80;;;;;;;15.75;91.93;100418.34;5024857;28;20068;-74
2022/09/09 08:11:18;;;;;;;30.23;7.47;;;;;;;15.74;91.43;100412.06;5020959;28;20282;-74
2022/09/09 08:13:44;;;;;;;31.90;8.23;;;;;;;15.79;91.80;100417.63;5018330;28;20033;-74
2022/09/09 08:16:13;;;;;;;33.85;8.07;;;;;;;15.79;91.50;100414.09;5013128;28;20021;-73
2022/09/09 08:18:39;;;;;;;29.05;7.15;;;;;;;15.88;91.21;100426.31;5018035;28;20119;-74
2022/09/09 08:21:11;;;;;;;29.08;7.22;;;;;;;15.91;90.71;100422.31;4998352;28;20014;-74
2022/09/09 08:23:38;;;;;;;33.50;9.23;;;;;;;15.91;90.79;100416.91;5015904;28;20038;-74
2022/09/09 08:26:06;;;;;;;29.45;8.18;;;;;;;15.90;90.71;100432.31;5014193;28;20108;-74
2022/09/09 08:28:31;;;;;;;27.23;7.75;;;;;;;15.91;91.18;100417.72;5014039;28;20080;-74
2022/09/09 08:31:05;;;;;;;25.48;7.47;;;;;;;15.89;90.89;100424.44;5015068;28;20034;-75
2022/09/09 08:33:30;;;;;;;32.65;7.45;;;;;;;15.92;91.28;100413.13;4998849;28;20026;-75
2022/09/09 08:35:56;;;;;;;28.17;7.20;;;;;;;15.88;91.25;100418.19;5020293;28;20179;-74
2022/09/09 08:38:21;;;;;;;31.08;8.07;;;;;;;15.86;91.21;100425.72;5011029;28;20124;-74
2022/09/09 08:40:49;;;;;;;37.95;7.20;;;;;;;15.88;91.69;100429.03;4994319;28;20029;-74
2022/09/09 08:43:17;;;;;;;25.83;6.43;;;;;;;15.84;91.92;100422.41;5004467;28;20044;-75
2022/09/09 08:46:10;;;;;;;27.27;7.22;;;;;;;15.82;91.36;100419.06;5022017;28;20025;-76
2022/09/09 08:48:47;;;;;;;42.75;7.78;;;;;;;15.85;91.49;100426.78;5001251;28;20037;-74
2022/09/09 08:51:13;;;;;;;37.70;7.32;;;;;;;15.87;91.47;100424.66;5001385;28;20482;-74
2022/09/09 08:53:43;;;;;;;34.50;6.78;;;;;;;15.90;90.78;100426.91;5016443;28;20038;-74
2022/09/09 08:56:15;;;;;;;34.42;7.28;;;;;;;15.96;90.58;100420.59;5019754;28;20025;-73
2022/09/09 08:58:48;;;;;;;31.38;6.13;;;;;;;15.97;90.46;100422.22;5004107;28;20048;-74
2022/09/09 09:01:40;;;;;;;29.45;6.60;;;;;;;15.98;90.44;100440.19;5022944;28;20029;-74
2022/09/09 09:04:33;;;;;;;33.22;8.65;;;;;;;15.83;93.69;100437.03;5027507;28;20105;-73
2022/09/09 09:07:27;;;;;;;30.05;7.57;;;;;;;15.76;94.74;100433.56;5007817;28;20076;-76
2022/09/09 09:09:58;;;;;;;32.28;7.85;;;;;;;15.76;95.40;100430.84;5029492;28;20447;-75
2022/09/09 09:12:26;;;;;;;43.97;10.90;;;;;;;15.69;96.58;100430.94;5023850;28;20048;-76
2022/09/09 09:14:51;;;;;;;32.25;7.85;;;;;;;15.70;96.69;100442.59;5025348;28;20093;-74
2022/09/09 09:17:21;;;;;;;24.30;8.13;;;;;;;15.73;95.44;100434.00;5035865;28;20056;-72
2022/09/09 09:19:48;;;;;;;28.55;7.55;;;;;;;15.77;95.32;100435.19;5034173;28;20409;-72
2022/09/09 09:22:31;;;;;;;29.13;8.23;;;;;;;15.77;95.66;100443.34;5032885;28;20036;-73
2022/09/09 09:25:28;;;;;;;36.55;6.75;;;;;;;15.83;94.54;100442.44;5004151;28;20037;-73
2022/09/09 09:28:19;;;;;;;26.00;6.78;;;;;;;15.98;94.22;100432.03;5001566;28;20026;-72
2022/09/09 09:31:13;;;;;;;30.67;7.20;;;;;;;16.16;93.60;100423.03;4999493;28;20066;-72
2022/09/09 09:33:52;;;;;;;32.20;6.68;;;;;;;16.30;92.41;100431.84;5018582;28;20045;-72
2022/09/09 09:36:18;;;;;;;30.38;7.07;;;;;;;16.34;92.55;100426.78;5022690;28;20033;-72
2022/09/09 09:38:56;;;;;;;31.77;7.32;;;;;;;16.48;91.41;100428.22;5002184;28;20049;-71
2022/09/09 09:41:31;;;;;;;;;;;;;;;16.49;91.69;100424.47;5021270;28;20029;-74
2022/09/09 09:43:57;;;;;;;23.85;5.75;;;;;;;16.49;91.44;100437.22;5003662;28;20008;-74
2022/09/09 09:46:25;;;;;;;25.92;5.90;;;;;;;16.57;91.81;100431.47;5006088;28;20121;-73
2022/09/09 09:49:01;;;;;;;16.95;6.05;;;;;;;16.46;91.13;100425.75;5032028;28;20350;-75
2022/09/09 09:51:29;;;;;;;35.10;7.53;;;;;;;16.19;94.98;100436.16;5024148;28;20414;-73
2022/09/09 09:54:09;;;;;;;29.15;8.75;;;;;;;15.57;100.00;100425.38;5016067;28;20040;-79
2022/09/09 09:56:34;;;;;;;31.00;9.32;;;;;;;15.23;100.00;100436.78;5008485;28;20036;-75
2022/09/09 09:59:00;;;;;;;31.25;10.75;;;;;;;15.14;100.00;100430.81;5006086;28;20038;-77
2022/09/09 10:01:29;;;;;;;32.00;10.30;;;;;;;15.07;100.00;100439.00;5025424;28;20025;-76
2022/09/09 10:03:58;;;;;;;41.53;11.10;;;;;;;15.04;100.00;100430.50;5033751;28;20645;-76
2022/09/09 10:06:34;;;;;;;33.50;10.55;;;;;;;15.08;100.00;100435.22;5025254;28;20044;-74
2022/09/09 10:08:59;;;;;;;32.90;9.85;;;;;;;15.14;100.00;100434.34;5002091;28;20100;-74
2022/09/09 10:11:43;;;;;;;34.03;11.70;;;;;;;15.11;100.00;100433.94;4984514;28;20034;-75
2022/09/09 10:14:22;;;;;;;44.17;11.30;;;;;;;15.05;100.00;100441.09;4985518;28;20030;-77
2022/09/09 10:16:57;;;;;;;31.63;11.35;;;;;;;15.07;100.00;100430.88;4983632;28;20041;-74
2022/09/09 10:19:34;;;;;;;36.80;9.93;;;;;;;15.05;100.00;100430.25;5014178;28;20048;-75
2022/09/09 10:22:11;;;;;;;31.27;10.02;;;;;;;15.11;100.00;100429.38;5007554;28;20030;-74
2022/09/09 10:24:49;;;;;;;32.17;10.38;;;;;;;15.19;100.00;100430.94;5002728;28;20037;-74
2022/09/09 10:27:46;;;;;;;26.02;9.55;;;;;;;15.23;100.00;100436.78;5000661;28;20050;-75
2022/09/09 10:30:18;;;;;;;31.60;9.65;;;;;;;15.24;100.00;100438.44;5004655;28;20050;-74
2022/09/09 10:33:09;;;;;;;36.80;11.15;;;;;;;15.28;100.00;100434.22;4987230;28;20038;-75
2022/09/09 10:35:52;;;;;;;28.52;9.93;;;;;;;15.43;100.00;100437.44;4998018;28;20030;-74
2022/09/09 10:38:23;;;;;;;39.00;11.45;;;;;;;15.46;100.00;100423.41;5004006;28;20084;-73
2022/09/09 10:41:13;;;;;;;39.38;10.65;;;;;;;15.50;100.00;100423.78;5006178;28;20073;-74
2022/09/09 10:43:40;;;;;;;32.17;9.85;;;;;;;15.57;100.00;100438.13;4991940;28;20395;-76
2022/09/09 10:46:22;;;;;;;40.53;11.02;;;;;;;15.68;100.00;100423.78;4998971;28;20033;-75
2022/09/09 10:49:04;;;;;;;39.08;10.88;;;;;;;16.05;100.00;100425.69;5019691;28;20052;-73
2022/09/09 10:51:51;;;;;;;25.15;8.98;;;;;;;16.14;100.00;100432.47;5010242;28;20048;-76
2022/09/09 10:54:34;;;;;;;24.55;9.52;;;;;;;16.27;100.00;100426.03;5013772;28;20087;-75
2022/09/09 10:57:14;;;;;;;32.50;10.40;;;;;;;16.56;100.00;100421.66;5013128;28;20394;-76
2022/09/09 10:59:45;;;;;;;30.20;9.02;;;;;;;16.59;100.00;100423.91;5019325;28;20030;-75
2022/09/09 11:02:19;;;;;;;33.55;8.75;;;;;;;16.70;100.00;100417.69;5026580;28;20041;-75
2022/09/09 11:04:56;;;;;;;29.05;9.02;;;;;;;16.73;100.00;100419.94;5039697;28;20089;-75
2022/09/09 11:07:31;;;;;;;30.92;9.82;;;;;;;16.80;100.00;100411.72;5028199;28;20026;-76
2022/09/09 11:10:01;;;;;;;19.77;7.53;;;;;;;16.88;100.00;100428.50;5030352;28;20030;-73
2022/09/09 11:12:27;;;;;;;29.42;8.05;;;;;;;16.86;100.00;100422.47;5012772;28;20029;-74
2022/09/09 11:15:08;;;;;;;17.30;7.53;;;;;;;17.02;100.00;100428.28;5032557;28;20028;-76
2022/09/09 11:17:47;;;;;;;19.70;7.75;;;;;;;17.07;99.71;100421.06;5023964;28;20176;-78
2022/09/09 11:20:13;;;;;;;18.20;7.20;;;;;;;16.79;99.37;100427.16;5031865;28;20013;-74
2022/09/09 11:22:51;;;;;;;22.15;7.15;;;;;;;16.91;99.70;100429.94;5024927;28;20041;-75
2022/09/09 11:25:20;;;;;;;27.17;7.20;;;;;;;16.77;99.74;100432.03;5023259;28;20052;-74
2022/09/09 11:28:09;;;;;;;28.63;8.13;;;;;;;16.53;98.37;100430.25;5006509;28;20053;-75
2022/09/09 11:31:19;;;;;;;24.10;8.02;;;;;;;16.56;99.45;100429.78;5024116;28;20449;-75